Time;durP1;ratioP1;P1;durP2;ratioP2;P2;SDS_P1;SDS_P2;PMS_P1;PMS_P2;Temp;Humidity;BMP_temperature;BMP_pressure;BME280_temperature;BME280_humidity;BME280_pressure;Samples;Min_cycle;Max_cycle;Signal;HPM_P1;HPM_P2
2023/04/26 02:02:22;;;;;;;23.75;3.53;;;;;;;;;;4351919;27;20067;-69
2023/04/26 02:04:49;;;;;;;11.30;4.75;;;;;;;;;;4296040;33;20448;-69
2023/04/26 02:07:15;;;;;;;11.00;3.55;;;;;;;;;;4292985;33;20062;-70
2023/04/26 02:09:45;;;;;;;11.77;3.95;;;;;;;;;;4292393;33;20176;-69
2023/04/26 02:12:11;;;;;;;8.90;3.55;;;;;;;;;;4294451;33;20049;-69
2023/04/26 02:14:37;;;;;;;12.20;3.10;;;;;;;;;;4290244;33;20074;-70
2023/04/26 02:17:03;;;;;;;7.75;3.03;;;;;;;;;;4265393;33;20045;-69
2023/04/26 02:19:30;;;;;;;15.60;3.15;;;;;;;;;;4250224;33;20054;-69
2023/04/26 02:21:57;;;;;;;15.27;3.62;;;;;;;;;;4251346;33;20093;-69
2023/04/26 02:24:23;;;;;;;10.38;3.67;;;;;;;;;;4249179;33;20046;-70
2023/04/26 02:26:51;;;;;;;6.90;2.95;;;;;;;;;;4249970;33;20110;-69
2023/04/26 02:29:17;;;;;;;14.25;3.58;;;;;;;;;;4231476;33;20499;-70
2023/04/26 02:31:43;;;;;;;19.50;3.87;;;;;;;;;;4220900;33;20030;-69
2023/04/26 02:34:11;;;;;;;17.50;4.05;;;;;;;;;;4222835;33;20058;-69
2023/04/26 02:36:37;;;;;;;9.60;3.45;;;;;;;;;;4221322;33;20076;-70
2023/04/26 02:39:04;;;;;;;8.95;4.62;;;;;;;;;;4234010;33;20041;-69
2023/04/26 02:41:31;;;;;;;19.37;5.97;;;;;;;;;;4236957;33;20114;-69
2023/04/26 02:43:57;;;;;;;12.77;5.28;;;;;;;;;;4237457;33;20064;-69
2023/04/26 02:46:24;;;;;;;9.43;4.10;;;;;;;;;;4234834;33;20064;-68
2023/04/26 02:48:50;;;;;;;11.55;3.85;;;;;;;;;;4257137;33;20091;-69
2023/04/26 02:51:16;;;;;;;11.27;3.87;;;;;;;;;;4275479;33;20087;-68
2023/04/26 02:53:43;;;;;;;10.95;3.55;;;;;;;;;;4265154;33;20034;-69
2023/04/26 02:56:10;;;;;;;11.07;4.22;;;;;;;;;;4264589;33;20056;-69
2023/04/26 02:58:36;;;;;;;9.57;4.20;;;;;;;;;;4263483;33;20049;-69
2023/04/26 03:01:03;;;;;;;9.38;3.60;;;;;;;;;;4261894;33;20530;-69
2023/04/26 03:03:29;;;;;;;8.30;3.67;;;;;;;;;;4275072;33;20054;-69
2023/04/26 03:05:55;;;;;;;16.90;5.05;;;;;;;;;;4279286;33;20370;-68
2023/04/26 03:08:22;;;;;;;8.43;3.83;;;;;;;;;;4263505;33;20057;-69
2023/04/26 03:10:48;;;;;;;22.08;5.53;;;;;;;;;;4248896;33;20089;-69
2023/04/26 03:13:15;;;;;;;8.27;3.70;;;;;;;;;;4250141;33;20140;-69
2023/04/26 03:15:45;;;;;;;18.23;4.68;;;;;;;;;;4256582;33;20435;-70
2023/04/26 03:18:11;;;;;;;14.80;4.97;;;;;;;;;;4264860;33;20045;-70
2023/04/26 03:20:38;;;;;;;13.62;4.30;;;;;;;;;;4261127;33;20054;-71
2023/04/26 03:23:04;;;;;;;12.70;4.35;;;;;;;;;;4265784;33;20468;-70
2023/04/26 03:25:30;;;;;;;8.25;3.60;;;;;;;;;;4256515;33;20041;-70
2023/04/26 03:27:56;;;;;;;10.52;3.28;;;;;;;;;;4253201;33;20131;-70
2023/04/26 03:30:22;;;;;;;9.63;3.15;;;;;;;;;;4237424;33;20043;-71
2023/04/26 03:32:49;;;;;;;10.93;3.78;;;;;;;;;;4237218;33;20102;-71
2023/04/26 03:35:15;;;;;;;16.95;3.85;;;;;;;;;;4239475;33;20072;-70
2023/04/26 03:37:42;;;;;;;12.82;4.50;;;;;;;;;;4239510;33;20046;-70
2023/04/26 03:40:09;;;;;;;8.07;3.33;;;;;;;;;;4260467;33;20430;-70
2023/04/26 03:42:36;;;;;;;14.55;3.45;;;;;;;;;;4277462;33;20067;-69
2023/04/26 03:45:03;;;;;;;10.18;4.30;;;;;;;;;;4280442;33;20426;-69
2023/04/26 03:47:30;;;;;;;9.35;3.55;;;;;;;;;;4281042;33;20063;-68
2023/04/26 03:50:02;;;;;;;11.32;3.83;;;;;;;;;;4281464;33;20050;-70
2023/04/26 03:52:29;;;;;;;16.12;4.20;;;;;;;;;;4281368;33;20415;-70
2023/04/26 03:54:55;;;;;;;6.25;3.37;;;;;;;;;;4280059;33;20169;-70
2023/04/26 03:57:22;;;;;;;14.95;4.57;;;;;;;;;;4281493;33;20061;-70
2023/04/26 03:59:49;;;;;;;9.10;4.43;;;;;;;;;;4281032;33;20063;-69
2023/04/26 04:02:16;;;;;;;15.85;4.62;;;;;;;;;;4294230;33;20472;-70
2023/04/26 04:04:42;;;;;;;11.88;3.55;;;;;;;;;;4296225;33;20399;-70
2023/04/26 04:07:09;;;;;;;14.40;5.85;;;;;;;;;;4290392;33;20142;-69
2023/04/26 04:09:35;;;;;;;9.57;4.75;;;;;;;;;;4275225;33;20385;-70
2023/04/26 04:12:01;;;;;;;23.27;4.93;;;;;;;;;;4280969;33;20071;-70
2023/04/26 04:14:27;;;;;;;16.80;5.30;;;;;;;;;;4281711;33;20678;-70
2023/04/26 04:16:54;;;;;;;17.50;4.05;;;;;;;;;;4285680;33;20075;-71
2023/04/26 04:19:21;;;;;;;19.27;4.78;;;;;;;;;;4283336;33;20080;-69
2023/04/26 04:21:47;;;;;;;14.77;5.00;;;;;;;;;;4283379;33;20053;-69
2023/04/26 04:24:13;;;;;;;17.17;5.57;;;;;;;;;;4280178;33;20105;-70
2023/04/26 04:26:40;;;;;;;12.13;4.28;;;;;;;;;;4280155;33;20045;-70
2023/04/26 04:29:07;;;;;;;20.58;5.95;;;;;;;;;;4279061;33;20420;-70
2023/04/26 04:31:35;;;;;;;18.05;6.28;;;;;;;;;;4279967;33;20085;-69
2023/04/26 04:34:01;;;;;;;24.30;5.60;;;;;;;;;;4280631;33;20416;-69
2023/04/26 04:36:27;;;;;;;9.25;4.00;;;;;;;;;;4286125;33;20075;-69
2023/04/26 04:38:53;;;;;;;11.52;4.68;;;;;;;;;;4285714;33;20038;-69
2023/04/26 04:41:21;;;;;;;8.77;4.57;;;;;;;;;;4291819;33;20053;-71
2023/04/26 04:43:47;;;;;;;14.87;4.37;;;;;;;;;;4260034;33;20050;-69
2023/04/26 04:46:13;;;;;;;16.05;4.37;;;;;;;;;;4256079;33;20050;-69
2023/04/26 04:48:40;;;;;;;11.98;4.87;;;;;;;;;;4252667;33;20368;-69
2023/04/26 04:51:06;;;;;;;14.85;5.60;;;;;;;;;;4253461;33;20608;-69
2023/04/26 04:53:34;;;;;;;15.32;4.70;;;;;;;;;;4259308;33;20071;-70
2023/04/26 04:56:00;;;;;;;6.95;3.97;;;;;;;;;;4257332;33;20053;-69
2023/04/26 04:58:26;;;;;;;11.85;3.50;;;;;;;;;;4255247;33;20035;-69
2023/04/26 05:00:54;;;;;;;18.35;3.67;;;;;;;;;;4262398;33;20491;-69
2023/04/26 05:03:22;;;;;;;13.70;3.70;;;;;;;;;;4272048;33;20416;-71
2023/04/26 05:05:48;;;;;;;5.87;3.40;;;;;;;;;;4263060;33;20118;-69
2023/04/26 05:08:14;;;;;;;11.38;3.97;;;;;;;;;;4265236;33;20117;-70
2023/04/26 05:10:40;;;;;;;7.07;3.22;;;;;;;;;;4265476;33;20061;-69
2023/04/26 05:13:06;;;;;;;9.38;3.95;;;;;;;;;;4264408;33;20029;-68
2023/04/26 05:15:33;;;;;;;11.60;4.05;;;;;;;;;;4257763;33;20369;-72
2023/04/26 05:17:59;;;;;;;16.45;3.62;;;;;;;;;;4262363;33;20042;-69
2023/04/26 05:20:26;;;;;;;11.70;3.17;;;;;;;;;;4264872;33;20048;-69
2023/04/26 05:22:52;;;;;;;13.48;3.12;;;;;;;;;;4262984;33;20037;-69
2023/04/26 05:25:19;;;;;;;7.10;2.97;;;;;;;;;;4262257;33;20075;-69
2023/04/26 05:27:46;;;;;;;15.88;3.25;;;;;;;;;;4261324;33;20496;-70
2023/04/26 05:30:14;;;;;;;11.88;2.95;;;;;;;;;;4264858;33;20072;-69
2023/04/26 05:32:41;;;;;;;5.37;2.47;;;;;;;;;;4276859;33;20049;-71
2023/04/26 05:35:08;;;;;;;11.15;2.75;;;;;;;;;;4255133;33;20126;-70
2023/04/26 05:37:35;;;;;;;10.65;2.90;;;;;;;;;;4257588;33;20042;-72
2023/04/26 05:40:03;;;;;;;6.53;2.15;;;;;;;;;;4279154;33;20173;-69
2023/04/26 05:42:29;;;;;;;9.25;2.95;;;;;;;;;;4265478;33;20675;-70
2023/04/26 05:44:56;;;;;;;14.27;2.83;;;;;;;;;;4264110;33;20466;-70
2023/04/26 05:47:23;;;;;;;10.10;2.70;;;;;;;;;;4266906;33;20030;-70
2023/04/26 05:49:49;;;;;;;10.98;3.05;;;;;;;;;;4269850;33;20053;-72
2023/04/26 05:52:15;;;;;;;12.65;2.62;;;;;;;;;;4263632;33;20083;-70
2023/04/26 05:54:42;;;;;;;7.22;2.87;;;;;;;;;;4243973;33;20086;-71
2023/04/26 05:57:08;;;;;;;7.60;2.22;;;;;;;;;;4243760;33;20257;-71
2023/04/26 05:59:37;;;;;;;6.55;2.35;;;;;;;;;;4243392;33;20215;-72
2023/04/26 06:02:03;;;;;;;10.15;2.05;;;;;;;;;;4236463;33;20353;-72
2023/04/26 06:04:31;;;;;;;6.25;2.30;;;;;;;;;;4234745;33;20185;-70
2023/04/26 06:06:59;;;;;;;10.20;2.05;;;;;;;;;;4264002;33;20448;-69
2023/04/26 06:09:26;;;;;;;10.18;2.45;;;;;;;;;;4268016;33;20338;-72
2023/04/26 06:11:52;;;;;;;10.40;2.62;;;;;;;;;;4258297;33;20102;-70
2023/04/26 06:14:19;;;;;;;4.37;1.73;;;;;;;;;;4264421;33;20058;-70
2023/04/26 06:16:45;;;;;;;8.80;2.95;;;;;;;;;;4267191;33;20257;-71
2023/04/26 06:19:11;;;;;;;8.25;2.35;;;;;;;;;;4251469;33;20425;-71
2023/04/26 06:21:37;;;;;;;8.10;2.20;;;;;;;;;;4246739;33;20113;-71
2023/04/26 06:24:04;;;;;;;9.30;1.77;;;;;;;;;;4247601;33;20465;-70
2023/04/26 06:26:31;;;;;;;7.57;1.92;;;;;;;;;;4256122;33;20046;-71
2023/04/26 06:28:57;;;;;;;4.53;1.62;;;;;;;;;;4264699;33;20079;-71
2023/04/26 06:31:23;;;;;;;5.55;1.10;;;;;;;;;;4264397;33;20044;-70
2023/04/26 06:33:50;;;;;;;8.70;2.50;;;;;;;;;;4251007;33;20041;-71
2023/04/26 06:36:17;;;;;;;8.93;2.15;;;;;;;;;;4250438;33;20080;-75
2023/04/26 06:38:43;;;;;;;5.00;1.75;;;;;;;;;;4245793;33;20042;-71
2023/04/26 06:41:09;;;;;;;9.85;1.75;;;;;;;;;;4243824;33;20479;-71
2023/04/26 06:43:36;;;;;;;9.82;2.30;;;;;;;;;;4235609;33;20062;-71
2023/04/26 06:46:02;;;;;;;6.53;2.10;;;;;;;;;;4234059;33;20046;-71
2023/04/26 06:48:29;;;;;;;3.42;1.30;;;;;;;;;;4232259;33;20082;-73
2023/04/26 06:50:55;;;;;;;4.95;1.70;;;;;;;;;;4240873;33;20080;-72
2023/04/26 06:53:21;;;;;;;10.25;2.05;;;;;;;;;;4254555;33;20379;-70
2023/04/26 06:55:47;;;;;;;10.52;1.77;;;;;;;;;;4259905;33;20106;-70
2023/04/26 06:58:14;;;;;;;6.47;1.52;;;;;;;;;;4253419;33;20396;-71
2023/04/26 07:00:40;;;;;;;9.70;1.60;;;;;;;;;;4264583;33;20075;-71
2023/04/26 07:03:07;;;;;;;9.63;1.75;;;;;;;;;;4267124;33;20109;-71
2023/04/26 07:05:32;;;;;;;4.40;1.60;;;;;;;;;;4282172;33;20092;-70
2023/04/26 07:07:59;;;;;;;6.12;2.03;;;;;;;;;;4290943;33;20107;-71
2023/04/26 07:10:26;;;;;;;11.90;1.65;;;;;;;;;;4292584;33;20045;-70
2023/04/26 07:12:52;;;;;;;6.40;1.80;;;;;;;;;;4287500;33;20619;-74
2023/04/26 07:15:18;;;;;;;5.68;1.65;;;;;;;;;;4293335;33;20088;-71
2023/04/26 07:17:44;;;;;;;5.82;1.70;;;;;;;;;;4294925;33;20050;-71
2023/04/26 07:20:10;;;;;;;8.98;1.58;;;;;;;;;;4293563;33;20024;-70
2023/04/26 07:22:36;;;;;;;3.03;1.42;;;;;;;;;;4283633;33;20049;-72
2023/04/26 07:25:03;;;;;;;6.80;1.87;;;;;;;;;;4294916;33;20893;-69
2023/04/26 07:27:30;;;;;;;10.43;1.98;;;;;;;;;;4295065;33;20368;-70
2023/04/26 07:29:56;;;;;;;4.53;1.45;;;;;;;;;;4295512;33;20052;-70
2023/04/26 07:32:22;;;;;;;14.82;1.50;;;;;;;;;;4293800;33;20072;-70
2023/04/26 07:34:48;;;;;;;5.55;1.40;;;;;;;;;;4295583;33;20100;-70
2023/04/26 07:37:15;;;;;;;7.68;2.05;;;;;;;;;;4281549;33;20069;-73
2023/04/26 07:39:41;;;;;;;5.25;1.27;;;;;;;;;;4294161;33;20516;-71
2023/04/26 07:42:08;;;;;;;10.88;2.40;;;;;;;;;;4287781;33;20084;-73
2023/04/26 07:44:34;;;;;;;3.80;1.15;;;;;;;;;;4265777;33;20456;-72
2023/04/26 07:47:00;;;;;;;7.62;1.95;;;;;;;;;;4264353;33;20049;-70
2023/04/26 07:49:26;;;;;;;8.48;1.37;;;;;;;;;;4264377;33;20128;-74
2023/04/26 07:51:53;;;;;;;3.92;1.37;;;;;;;;;;4262234;33;20140;-71
2023/04/26 07:54:20;;;;;;;3.45;1.40;;;;;;;;;;4262217;33;20565;-70
2023/04/26 07:56:46;;;;;;;3.47;1.80;;;;;;;;;;4262470;33;20066;-71
2023/04/26 07:59:12;;;;;;;3.78;1.50;;;;;;;;;;4262021;33;20103;-72
2023/04/26 08:01:39;;;;;;;4.87;1.30;;;;;;;;;;4264930;33;20100;-74
2023/04/26 08:04:05;;;;;;;5.85;1.30;;;;;;;;;;4271085;33;20054;-72
2023/04/26 08:06:32;;;;;;;8.35;1.52;;;;;;;;;;4276464;33;20053;-72
2023/04/26 08:08:58;;;;;;;5.47;1.40;;;;;;;;;;4277525;33;20074;-71
2023/04/26 08:11:24;;;;;;;9.85;2.03;;;;;;;;;;4275813;33;20110;-69
2023/04/26 08:13:50;;;;;;;5.78;1.30;;;;;;;;;;4275309;33;20033;-70
2023/04/26 08:16:16;;;;;;;13.07;3.47;;;;;;;;;;4274101;33;20067;-70
2023/04/26 08:18:43;;;;;;;2.90;1.17;;;;;;;;;;4282305;33;20060;-71
2023/04/26 08:21:09;;;;;;;3.65;0.93;;;;;;;;;;4282042;33;20059;-70
2023/04/26 08:23:35;;;;;;;3.67;1.58;;;;;;;;;;4285386;33;20505;-71
2023/04/26 08:26:02;;;;;;;4.70;1.17;;;;;;;;;;4282482;33;20068;-71
2023/04/26 08:28:28;;;;;;;2.05;1.90;;;;;;;;;;4281166;33;20470;-72
2023/04/26 08:30:54;;;;;;;5.57;1.40;;;;;;;;;;4274501;33;20779;-71
2023/04/26 08:33:21;;;;;;;2.95;1.08;;;;;;;;;;4266499;33;20042;-74
2023/04/26 08:35:47;;;;;;;6.97;1.35;;;;;;;;;;4270636;33;20050;-71
2023/04/26 08:38:13;;;;;;;6.85;1.55;;;;;;;;;;4279456;33;20063;-72
2023/04/26 08:40:40;;;;;;;6.87;1.40;;;;;;;;;;4259829;33;20045;-71
2023/04/26 08:43:07;;;;;;;3.95;1.77;;;;;;;;;;4255783;33;20045;-71
2023/04/26 08:45:35;;;;;;;5.65;1.70;;;;;;;;;;4258559;33;20075;-72
2023/04/26 08:48:07;;;;;;;6.62;1.85;;;;;;;;;;4260014;33;20053;-73
2023/04/26 08:50:35;;;;;;;7.35;2.60;;;;;;;;;;4252575;33;20050;-73
2023/04/26 08:53:02;;;;;;;2.92;1.30;;;;;;;;;;4254483;33;20781;-72
2023/04/26 08:55:28;;;;;;;5.07;1.37;;;;;;;;;;4230725;33;20065;-72
2023/04/26 08:57:54;;;;;;;7.50;2.03;;;;;;;;;;4229961;33;20039;-71
2023/04/26 09:00:22;;;;;;;5.90;2.83;;;;;;;;;;4237165;33;20064;-71
2023/04/26 09:02:49;;;;;;;6.82;1.10;;;;;;;;;;4259089;33;20189;-73
2023/04/26 09:05:16;;;;;;;4.78;1.40;;;;;;;;;;4266018;33;20417;-71
2023/04/26 09:07:46;;;;;;;5.05;1.50;;;;;;;;;;4266360;33;20097;-72
2023/04/26 09:10:16;;;;;;;6.20;1.52;;;;;;;;;;4264541;33;20569;-72
2023/04/26 09:12:42;;;;;;;2.95;1.60;;;;;;;;;;4263779;33;20063;-71
2023/04/26 09:15:09;;;;;;;9.40;1.70;;;;;;;;;;4257247;33;20101;-71
2023/04/26 09:17:36;;;;;;;6.03;1.35;;;;;;;;;;4269865;33;20067;-70
2023/04/26 09:20:21;;;;;;;2.92;1.52;;;;;;;;;;4271327;33;20572;-70
2023/04/26 09:22:48;;;;;;;12.88;2.90;;;;;;;;;;4279250;33;20037;-71
2023/04/26 09:25:16;;;;;;;6.40;2.22;;;;;;;;;;4282335;33;20057;-70
2023/04/26 09:27:42;;;;;;;11.73;1.73;;;;;;;;;;4282606;33;20053;-70
2023/04/26 09:30:11;;;;;;;3.20;0.88;;;;;;;;;;4290474;33;20632;-69
2023/04/26 09:32:54;;;;;;;7.68;1.05;;;;;;;;;;4282192;33;20099;-69
2023/04/26 09:35:23;;;;;;;2.40;1.27;;;;;;;;;;4277168;33;20049;-69
2023/04/26 09:37:52;;;;;;;5.60;1.08;;;;;;;;;;4277910;33;20441;-72
2023/04/26 09:40:19;;;;;;;4.43;2.20;;;;;;;;;;4279858;33;20045;-71
2023/04/26 09:42:45;;;;;;;3.12;2.30;;;;;;;;;;4278376;33;20463;-71
2023/04/26 09:45:11;;;;;;;3.22;1.10;;;;;;;;;;4279276;33;20080;-72
2023/04/26 09:47:45;;;;;;;7.07;2.72;;;;;;;;;;4279798;33;20045;-72
2023/04/26 09:50:12;;;;;;;5.53;1.77;;;;;;;;;;4279788;33;20415;-72
2023/04/26 09:52:42;;;;;;;8.32;1.90;;;;;;;;;;4279649;33;20057;-72
2023/04/26 09:55:09;;;;;;;3.67;1.70;;;;;;;;;;4264511;33;20510;-72
2023/04/26 09:57:41;;;;;;;8.43;2.50;;;;;;;;;;4264654;33;20839;-72
2023/04/26 10:02:41;;;;;;;5.30;1.40;;;;;;;;;;4256838;33;20053;-72
2023/04/26 10:05:08;;;;;;;5.05;1.48;;;;;;;;;;4251635;33;20051;-71
2023/04/26 10:07:35;;;;;;;4.50;1.48;;;;;;;;;;4246300;33;20034;-72
2023/04/26 10:10:02;;;;;;;1.60;1.25;;;;;;;;;;4243696;33;20535;-73
2023/04/26 10:12:28;;;;;;;5.85;1.35;;;;;;;;;;4252176;33;20089;-73
2023/04/26 10:14:56;;;;;;;3.03;1.20;;;;;;;;;;4250905;33;20088;-73
2023/04/26 10:17:23;;;;;;;4.62;1.35;;;;;;;;;;4247847;33;20068;-71
2023/04/26 10:19:51;;;;;;;4.18;1.12;;;;;;;;;;4251542;33;20065;-73
2023/04/26 10:22:20;;;;;;;4.78;1.50;;;;;;;;;;4249446;33;20099;-71
2023/04/26 10:24:48;;;;;;;4.90;1.35;;;;;;;;;;4248555;33;20181;-72
2023/04/26 10:27:15;;;;;;;4.95;1.45;;;;;;;;;;4269073;33;20045;-72
2023/04/26 10:29:54;;;;;;;4.55;1.52;;;;;;;;;;4281189;33;20086;-73
2023/04/26 10:32:21;;;;;;;2.47;1.45;;;;;;;;;;4269359;33;20056;-72
2023/04/26 10:35:14;;;;;;;5.28;1.52;;;;;;;;;;4266612;33;20075;-71
2023/04/26 10:37:58;;;;;;;1.35;1.02;;;;;;;;;;4265874;33;20053;-71
2023/04/26 10:40:29;;;;;;;2.05;1.67;;;;;;;;;;4270794;33;20069;-72
2023/04/26 10:43:07;;;;;;;1.35;1.25;;;;;;;;;;4269851;33;20457;-71
2023/04/26 10:45:33;;;;;;;5.55;1.55;;;;;;;;;;4275006;33;20065;-71
2023/04/26 10:48:18;;;;;;;8.07;2.25;;;;;;;;;;4263487;33;20083;-71
2023/04/26 10:51:12;;;;;;;7.12;1.62;;;;;;;;;;4264345;33;20213;-69
2023/04/26 10:53:44;;;;;;;6.37;1.70;;;;;;;;;;4264674;33;20119;-71
2023/04/26 10:56:23;;;;;;;4.90;1.60;;;;;;;;;;4263265;33;20074;-71
2023/04/26 10:59:06;;;;;;;2.12;2.03;;;;;;;;;;4263499;33;20050;-72
2023/04/26 11:01:32;;;;;;;4.75;2.35;;;;;;;;;;4395958;28;20280;-72
2023/04/26 11:03:58;;;;;;;4.35;1.48;;;;;;;;;;4264708;33;20136;-71
2023/04/26 11:06:25;;;;;;;4.68;1.12;;;;;;;;;;4264699;33;20058;-71
2023/04/26 11:08:54;;;;;;;6.25;1.60;;;;;;;;;;4264639;33;20042;-72
2023/04/26 11:11:25;;;;;;;5.68;1.17;;;;;;;;;;4262834;33;20097;-73
2023/04/26 11:13:51;;;;;;;2.97;1.60;;;;;;;;;;4264340;33;20226;-72
2023/04/26 11:16:17;;;;;;;7.30;1.48;;;;;;;;;;4265206;33;20072;-72
2023/04/26 11:18:45;;;;;;;2.67;1.23;;;;;;;;;;4268130;33;20072;-72
2023/04/26 11:21:16;;;;;;;10.80;1.92;;;;;;;;;;4268516;33;20053;-73
2023/04/26 11:23:42;;;;;;;3.90;1.25;;;;;;;;;;4266571;33;20075;-73
2023/04/26 11:26:09;;;;;;;2.83;1.27;;;;;;;;;;4265151;33;20064;-71
2023/04/26 11:28:35;;;;;;;5.22;1.27;;;;;;;;;;4278279;33;20029;-73
2023/04/26 11:31:03;;;;;;;7.80;1.50;;;;;;;;;;4278944;33;20069;-72
2023/04/26 11:33:29;;;;;;;3.65;1.33;;;;;;;;;;4276381;33;20037;-73
2023/04/26 11:35:56;;;;;;;4.28;1.30;;;;;;;;;;4278105;33;20068;-72
2023/04/26 11:38:23;;;;;;;1.80;1.67;;;;;;;;;;4278981;33;20038;-72
2023/04/26 11:40:56;;;;;;;12.18;2.42;;;;;;;;;;4280448;33;20547;-73
2023/04/26 11:43:30;;;;;;;5.05;2.58;;;;;;;;;;4281313;33;20064;-73
2023/04/26 11:46:00;;;;;;;11.20;2.37;;;;;;;;;;4282483;33;20838;-72
2023/04/26 11:48:26;;;;;;;7.12;1.73;;;;;;;;;;4284246;33;20034;-71
2023/04/26 11:50:53;;;;;;;4.40;1.17;;;;;;;;;;4266377;33;20067;-72
2023/04/26 11:53:19;;;;;;;5.28;1.60;;;;;;;;;;4265611;33;20077;-71
2023/04/26 11:55:46;;;;;;;8.45;2.22;;;;;;;;;;4238990;33;20457;-70
2023/04/26 11:58:13;;;;;;;7.50;1.83;;;;;;;;;;4238123;33;20050;-71
2023/04/26 12:00:59;;;;;;;5.78;2.12;;;;;;;;;;4224330;33;20046;-74
2023/04/26 12:03:28;;;;;;;2.75;1.40;;;;;;;;;;4221604;33;20047;-72
2023/04/26 12:05:55;;;;;;;7.20;1.98;;;;;;;;;;4210710;34;20479;-73
2023/04/26 12:08:25;;;;;;;4.80;1.58;;;;;;;;;;4216639;33;20039;-71
2023/04/26 12:10:52;;;;;;;4.53;1.55;;;;;;;;;;4201951;34;20354;-73
2023/04/26 12:13:18;;;;;;;3.80;2.20;;;;;;;;;;4181709;34;20059;-71
2023/04/26 12:15:45;;;;;;;8.52;1.95;;;;;;;;;;4196073;34;20084;-72
2023/04/26 12:18:11;;;;;;;4.87;1.58;;;;;;;;;;4195920;34;20043;-70
2023/04/26 12:20:39;;;;;;;4.12;1.55;;;;;;;;;;4195835;34;20043;-70
2023/04/26 12:23:05;;;;;;;11.80;2.00;;;;;;;;;;4221802;34;20047;-74
2023/04/26 12:25:33;;;;;;;6.53;1.33;;;;;;;;;;4223361;34;20058;-71
2023/04/26 12:27:59;;;;;;;4.57;1.85;;;;;;;;;;4222682;34;20062;-72
2023/04/26 12:30:26;;;;;;;10.68;1.92;;;;;;;;;;4228582;33;20060;-72
2023/04/26 12:33:00;;;;;;;3.75;1.52;;;;;;;;;;4238257;33;20471;-73
2023/04/26 12:35:27;;;;;;;9.55;3.10;;;;;;;;;;4236915;33;20057;-73
2023/04/26 12:37:55;;;;;;;3.47;1.73;;;;;;;;;;4227683;33;20070;-74
2023/04/26 12:40:22;;;;;;;8.07;1.83;;;;;;;;;;4224292;34;20169;-73
2023/04/26 12:42:57;;;;;;;9.00;1.48;;;;;;;;;;4235434;33;20039;-73
2023/04/26 12:45:24;;;;;;;1.95;1.25;;;;;;;;;;4219879;33;20415;-73
2023/04/26 12:47:50;;;;;;;7.30;2.00;;;;;;;;;;4238157;33;20115;-73
2023/04/26 12:50:16;;;;;;;1.95;1.50;;;;;;;;;;4227239;33;20063;-72
2023/04/26 12:52:43;;;;;;;2.17;0.93;;;;;;;;;;4233868;33;20696;-73
2023/04/26 12:55:10;;;;;;;3.62;1.48;;;;;;;;;;4231571;33;20064;-74
2023/04/26 12:57:36;;;;;;;2.12;1.15;;;;;;;;;;4215709;33;20069;-74
2023/04/26 13:00:08;;;;;;;5.37;1.30;;;;;;;;;;4235377;33;20064;-73
2023/04/26 13:02:34;;;;;;;3.22;0.98;;;;;;;;;;4251053;33;20419;-73
2023/04/26 13:05:03;;;;;;;7.22;1.12;;;;;;;;;;4244358;33;20056;-75
2023/04/26 13:07:33;;;;;;;4.78;1.58;;;;;;;;;;4198034;34;20051;-74
2023/04/26 13:09:59;;;;;;;5.87;1.80;;;;;;;;;;4215622;33;20122;-74
2023/04/26 13:12:26;;;;;;;6.37;2.20;;;;;;;;;;4223506;33;20046;-74
2023/04/26 13:14:53;;;;;;;3.92;1.52;;;;;;;;;;4221078;33;20532;-74
2023/04/26 13:17:19;;;;;;;4.40;1.33;;;;;;;;;;4217300;33;20039;-73
2023/04/26 13:19:46;;;;;;;4.50;1.50;;;;;;;;;;4220560;33;20054;-73
2023/04/26 13:22:12;;;;;;;6.10;1.40;;;;;;;;;;4208280;34;20077;-72
2023/04/26 13:24:38;;;;;;;3.00;1.30;;;;;;;;;;4212059;33;20057;-73
2023/04/26 13:27:04;;;;;;;5.82;1.33;;;;;;;;;;4224377;33;20031;-73
2023/04/26 13:29:31;;;;;;;7.32;1.50;;;;;;;;;;4225243;33;20114;-73
2023/04/26 13:32:00;;;;;;;7.15;1.60;;;;;;;;;;4214749;33;21011;-73
2023/04/26 13:34:26;;;;;;;8.55;1.62;;;;;;;;;;4207272;34;20047;-74
2023/04/26 13:36:55;;;;;;;3.25;1.12;;;;;;;;;;4196996;34;20043;-72
2023/04/26 13:39:23;;;;;;;4.45;1.52;;;;;;;;;;4212340;33;20046;-73
2023/04/26 13:41:49;;;;;;;5.35;1.08;;;;;;;;;;4218894;33;20076;-72
2023/04/26 13:44:16;;;;;;;3.42;1.23;;;;;;;;;;4222213;33;20077;-71
2023/04/26 13:46:42;;;;;;;6.45;1.62;;;;;;;;;;4221000;33;20027;-71
2023/04/26 13:49:09;;;;;;;4.07;1.75;;;;;;;;;;4222725;33;20484;-71
2023/04/26 13:51:36;;;;;;;3.83;1.37;;;;;;;;;;4222269;33;20042;-71
2023/04/26 13:54:03;;;;;;;8.38;1.65;;;;;;;;;;4234072;33;20066;-72
2023/04/26 13:56:29;;;;;;;2.00;1.27;;;;;;;;;;4244866;33;20804;-72
2023/04/26 13:58:56;;;;;;;4.00;1.30;;;;;;;;;;4227782;33;20075;-72
2023/04/26 14:01:22;;;;;;;3.70;1.08;;;;;;;;;;4224372;33;20190;-71
2023/04/26 14:03:55;;;;;;;5.12;1.85;;;;;;;;;;4221987;33;20054;-71
2023/04/26 14:06:21;;;;;;;9.90;1.90;;;;;;;;;;4245431;33;20055;-70
2023/04/26 14:08:48;;;;;;;10.27;1.77;;;;;;;;;;4254744;33;20439;-70
2023/04/26 14:11:14;;;;;;;10.50;1.55;;;;;;;;;;4257644;33;20042;-70
2023/04/26 14:13:40;;;;;;;8.32;2.30;;;;;;;;;;4257335;33;20098;-71
2023/04/26 14:16:07;;;;;;;2.92;1.58;;;;;;;;;;4250505;33;20098;-73
2023/04/26 14:18:33;;;;;;;9.65;1.58;;;;;;;;;;4252338;33;20041;-70
2023/04/26 14:20:59;;;;;;;6.18;1.67;;;;;;;;;;4255293;33;20053;-71
2023/04/26 14:23:26;;;;;;;4.10;1.52;;;;;;;;;;4252369;33;21633;-72
2023/04/26 14:25:52;;;;;;;2.47;1.67;;;;;;;;;;4234183;33;20121;-71
2023/04/26 14:28:19;;;;;;;2.15;1.05;;;;;;;;;;4232923;33;20042;-73
2023/04/26 14:30:45;;;;;;;5.68;1.95;;;;;;;;;;4245723;33;20112;-71
2023/04/26 14:33:12;;;;;;;5.53;1.45;;;;;;;;;;4249511;33;20368;-72
2023/04/26 14:35:38;;;;;;;1.92;1.20;;;;;;;;;;4248272;33;20464;-71
2023/04/26 14:38:05;;;;;;;3.67;1.20;;;;;;;;;;4248241;33;20103;-71
2023/04/26 14:40:31;;;;;;;2.60;1.02;;;;;;;;;;4245929;33;20026;-72
2023/04/26 14:42:57;;;;;;;7.37;1.65;;;;;;;;;;4235780;33;20076;-72
2023/04/26 14:45:23;;;;;;;0.93;0.90;;;;;;;;;;4235222;33;20042;-71
2023/04/26 14:47:50;;;;;;;3.22;1.33;;;;;;;;;;4235581;33;20090;-71
2023/04/26 14:50:18;;;;;;;6.40;1.77;;;;;;;;;;4235657;33;20064;-71
2023/04/26 14:52:45;;;;;;;5.80;1.50;;;;;;;;;;4220676;33;20065;-71
2023/04/26 14:55:23;;;;;;;18.23;1.50;;;;;;;;;;4220285;33;20072;-75
2023/04/26 14:57:50;;;;;;;7.07;1.95;;;;;;;;;;4245199;33;20452;-71
2023/04/26 15:00:16;;;;;;;7.50;1.60;;;;;;;;;;4248335;33;20089;-71
2023/04/26 15:02:42;;;;;;;3.53;1.00;;;;;;;;;;4245718;33;20136;-72
2023/04/26 15:05:09;;;;;;;3.53;1.52;;;;;;;;;;4244899;33;20072;-71
2023/04/26 15:07:36;;;;;;;5.37;1.87;;;;;;;;;;4249734;33;20400;-72
2023/04/26 15:10:02;;;;;;;3.40;1.52;;;;;;;;;;4249283;33;20364;-71
2023/04/26 15:12:28;;;;;;;5.05;1.05;;;;;;;;;;4249371;33;20545;-71
2023/04/26 15:14:55;;;;;;;5.35;1.60;;;;;;;;;;4259831;33;20041;-71
2023/04/26 15:17:21;;;;;;;3.15;1.33;;;;;;;;;;4296344;33;20359;-71
2023/04/26 15:19:47;;;;;;;7.68;1.33;;;;;;;;;;4306703;33;20058;-71
2023/04/26 15:22:13;;;;;;;5.57;1.83;;;;;;;;;;4292078;33;20054;-70
2023/04/26 15:24:48;;;;;;;9.93;1.90;;;;;;;;;;4286407;33;20333;-73
2023/04/26 15:27:15;;;;;;;3.67;1.48;;;;;;;;;;4295291;33;20074;-71
2023/04/26 15:29:40;;;;;;;3.55;1.85;;;;;;;;;;4294839;33;20118;-71
2023/04/26 15:32:07;;;;;;;9.52;2.65;;;;;;;;;;4293858;33;20174;-70
2023/04/26 15:34:43;;;;;;;3.50;1.87;;;;;;;;;;4292750;33;20065;-71
2023/04/26 15:37:10;;;;;;;11.55;2.30;;;;;;;;;;4272675;33;20122;-70
2023/04/26 15:39:36;;;;;;;12.82;1.77;;;;;;;;;;4271816;33;20069;-70
2023/04/26 15:42:04;;;;;;;5.32;1.73;;;;;;;;;;4272404;33;20045;-70
2023/04/26 15:44:30;;;;;;;16.67;2.05;;;;;;;;;;4274285;33;20110;-71
2023/04/26 15:46:57;;;;;;;7.45;1.95;;;;;;;;;;4269558;33;20383;-70
2023/04/26 15:49:23;;;;;;;2.85;1.75;;;;;;;;;;4271978;33;20088;-69
2023/04/26 15:51:49;;;;;;;8.13;1.58;;;;;;;;;;4267454;33;20445;-71
2023/04/26 15:54:15;;;;;;;4.65;1.58;;;;;;;;;;4280801;33;20101;-70
2023/04/26 15:56:42;;;;;;;10.45;1.60;;;;;;;;;;4283251;33;20074;-70
2023/04/26 15:59:08;;;;;;;4.03;1.62;;;;;;;;;;4304794;33;20344;-71
2023/04/26 16:01:35;;;;;;;1.42;1.30;;;;;;;;;;4292611;33;20325;-70
2023/04/26 16:04:01;;;;;;;3.60;1.30;;;;;;;;;;4293482;33;20097;-70
2023/04/26 16:06:27;;;;;;;10.30;1.83;;;;;;;;;;4293816;33;20066;-71
2023/04/26 16:08:53;;;;;;;13.23;1.55;;;;;;;;;;4283218;33;20465;-69
2023/04/26 16:11:20;;;;;;;5.12;1.52;;;;;;;;;;4278631;33;20273;-71
2023/04/26 16:13:50;;;;;;;3.30;1.10;;;;;;;;;;4280201;33;20108;-70
2023/04/26 16:16:17;;;;;;;2.90;1.48;;;;;;;;;;4292792;33;20044;-71
2023/04/26 16:18:49;;;;;;;5.12;1.73;;;;;;;;;;4274232;33;20059;-70
2023/04/26 16:21:16;;;;;;;8.07;2.40;;;;;;;;;;4273084;33;20068;-74
2023/04/26 16:23:42;;;;;;;9.07;2.28;;;;;;;;;;4280214;33;20053;-72
2023/04/26 16:26:08;;;;;;;5.60;2.15;;;;;;;;;;4275559;33;20376;-71
2023/04/26 16:28:34;;;;;;;7.12;1.70;;;;;;;;;;4273844;33;20064;-70
2023/04/26 16:31:01;;;;;;;4.18;2.05;;;;;;;;;;4255601;33;20072;-70
2023/04/26 16:33:27;;;;;;;4.47;2.12;;;;;;;;;;4266150;33;20041;-70
2023/04/26 16:35:54;;;;;;;5.47;2.90;;;;;;;;;;4272039;33;20065;-70
2023/04/26 16:38:20;;;;;;;21.92;6.18;;;;;;;;;;4273432;33;20170;-70
2023/04/26 16:40:57;;;;;;;7.62;3.37;;;;;;;;;;4271883;33;20033;-70
2023/04/26 16:43:26;;;;;;;11.57;3.67;;;;;;;;;;4270455;33;20063;-73